Time;durP1;ratioP1;P1;durP2;ratioP2;P2;SDS_P1;SDS_P2;PMS_P1;PMS_P2;Temp;Humidity;BMP_temperature;BMP_pressure;BME280_temperature;BME280_humidity;BME280_pressure;Samples;Min_cycle;Max_cycle;Signal;HPM_P1;HPM_P2
2022/01/21 00:01:33;;;;;;;2.83;1.13;;;;;;;-3.90;58.89;95545.83;1697789;84;21030;-68
2022/01/21 00:04:02;;;;;;;2.53;0.80;;;;;;;-3.95;61.11;95541.38;1669812;84;21532;-68
2022/01/21 00:06:28;;;;;;;3.60;1.17;;;;;;;-4.11;62.71;95547.20;1697382;84;22375;-68
2022/01/21 00:08:55;;;;;;;3.50;1.03;;;;;;;-4.32;63.06;95562.75;1697492;84;21026;-68
2022/01/21 00:11:24;;;;;;;1.73;0.70;;;;;;;-4.45;63.22;95557.55;1697280;84;21598;-68
2022/01/21 00:13:51;;;;;;;2.13;0.90;;;;;;;-4.56;64.94;95550.71;1697420;84;21089;-68
2022/01/21 00:16:24;;;;;;;2.13;0.80;;;;;;;-4.63;64.85;95548.30;1697168;84;21015;-68
2022/01/21 00:19:03;;;;;;;2.98;1.17;;;;;;;-4.66;64.84;95539.17;1697640;84;21536;-68
2022/01/21 00:32:31;;;;;;;2.93;0.90;;;;;;;-4.92;66.45;95572.02;1697791;84;21034;-68
2022/01/21 00:34:58;;;;;;;3.30;1.10;;;;;;;-4.97;66.21;95580.83;1697483;84;21461;-68
2022/01/21 00:37:25;;;;;;;3.70;0.80;;;;;;;-5.02;66.45;95579.35;1697504;84;21011;-68
2022/01/21 00:39:56;;;;;;;2.50;0.97;;;;;;;-5.09;66.39;95586.77;1697260;84;21113;-68
2022/01/21 00:44:51;;;;;;;2.13;0.70;;;;;;;-5.41;66.06;95590.19;1697469;84;20998;-68
2022/01/21 00:47:18;;;;;;;5.43;0.90;;;;;;;-5.52;66.75;95583.70;1696863;84;21050;-69
2022/01/21 00:49:45;;;;;;;6.33;1.20;;;;;;;-5.84;66.16;95587.08;1697207;84;21146;-69
2022/01/21 00:52:11;;;;;;;1.90;0.60;;;;;;;-5.94;67.18;95584.53;1697176;84;21089;-69
2022/01/21 00:54:40;;;;;;;4.03;1.30;;;;;;;-6.05;67.25;95584.45;1697471;84;21006;-69
2022/01/21 00:57:07;;;;;;;2.13;1.20;;;;;;;-6.03;67.51;95598.25;1697478;84;21030;-68
2022/01/21 00:59:33;;;;;;;2.33;0.93;;;;;;;-6.02;67.73;95597.45;1697531;84;21034;-69
2022/01/21 01:02:00;;;;;;;1.97;0.97;;;;;;;-6.02;67.62;95602.59;1697558;84;21024;-69
2022/01/21 01:04:27;;;;;;;1.80;1.00;;;;;;;-6.13;67.55;95599.52;1697379;84;21046;-69
2022/01/21 01:06:54;;;;;;;1.93;1.00;;;;;;;-6.24;67.85;95596.02;1697223;84;21107;-69
2022/01/21 01:09:21;;;;;;;2.90;1.20;;;;;;;-6.41;68.05;95598.69;1697166;84;21615;-69
2022/01/21 01:12:07;;;;;;;1.73;1.00;;;;;;;-6.56;68.70;95597.57;1697504;84;21034;-68
2022/01/21 01:22:25;;;;;;;1.27;0.80;;;;;;;-6.87;70.69;95599.12;1697572;84;21038;-69
2022/01/21 01:27:37;;;;;;;4.57;1.13;;;;;;;-7.01;71.02;95596.28;1697334;84;21082;-69
2022/01/21 01:30:07;;;;;;;3.00;1.20;;;;;;;-6.97;71.47;95599.48;1697584;84;21528;-69
2022/01/21 01:32:34;;;;;;;0.77;0.60;;;;;;;-6.93;71.58;95595.37;1669721;84;21075;-69
2022/01/21 01:35:01;;;;;;;2.70;1.00;;;;;;;-7.04;71.84;95597.02;1669744;84;21511;-69
2022/01/21 01:40:12;;;;;;;1.83;1.37;;;;;;;-7.00;71.83;95596.78;1697933;84;20975;-68
2022/01/21 01:50:24;;;;;;;3.30;1.40;;;;;;;-6.79;71.06;95593.06;1661974;84;21477;-68
2022/01/21 01:52:51;;;;;;;2.30;1.20;;;;;;;-6.78;70.90;95591.87;1697497;84;21563;-68
2022/01/21 01:55:18;;;;;;;3.23;1.20;;;;;;;-6.76;70.95;95594.48;1697349;84;21516;-69
2022/01/21 01:57:46;;;;;;;2.80;1.10;;;;;;;-6.76;70.62;95602.18;1697488;84;20979;-68
2022/01/21 02:00:14;;;;;;;2.33;0.83;;;;;;;-6.91;70.09;95600.17;1697233;84;21094;-68
2022/01/21 02:02:40;;;;;;;5.17;1.60;;;;;;;-6.97;70.67;95608.05;1697385;84;21023;-68
2022/01/21 02:05:08;;;;;;;1.90;1.00;;;;;;;-6.96;70.83;95608.52;1697398;84;21046;-68
2022/01/21 02:07:35;;;;;;;1.93;1.00;;;;;;;-7.07;70.13;95606.27;1697426;84;21541;-68
2022/01/21 02:10:03;;;;;;;3.30;0.70;;;;;;;-7.17;70.12;95598.52;1697389;84;21477;-68
2022/01/21 02:12:31;;;;;;;3.43;1.43;;;;;;;-7.31;70.48;95596.96;1697046;84;21109;-69
2022/01/21 02:15:00;;;;;;;3.30;0.90;;;;;;;-7.37;70.70;95599.23;1697640;84;21094;-68
2022/01/21 02:22:46;;;;;;;1.80;1.07;;;;;;;-7.94;71.03;95610.45;1710106;84;21114;-68
2022/01/21 02:25:18;;;;;;;2.23;1.23;;;;;;;-8.16;71.92;95611.04;1709774;84;21049;-68
2022/01/21 02:27:50;;;;;;;2.50;1.03;;;;;;;-8.23;72.67;95614.95;1709859;84;21568;-68
2022/01/21 02:30:20;;;;;;;1.60;0.87;;;;;;;-8.10;72.68;95612.63;1710219;84;21010;-68
2022/01/21 02:32:55;;;;;;;1.20;0.97;;;;;;;-7.98;72.87;95618.80;1710256;84;21064;-68
2022/01/21 02:35:23;;;;;;;4.40;1.83;;;;;;;-7.93;72.75;95627.59;1710220;84;21069;-68
2022/01/21 02:37:50;;;;;;;4.30;2.20;;;;;;;-7.88;73.11;95620.63;1710246;84;21046;-68
2022/01/21 02:40:18;;;;;;;5.00;2.47;;;;;;;-7.75;73.14;95628.53;1710493;84;21149;-68
2022/01/21 02:42:45;;;;;;;4.50;2.60;;;;;;;-7.73;72.57;95627.34;1709972;84;21038;-68
2022/01/21 02:45:14;;;;;;;5.00;2.27;;;;;;;-7.73;72.85;95623.09;1709952;84;21141;-68
2022/01/21 02:47:44;;;;;;;2.73;1.07;;;;;;;-7.68;72.80;95629.33;1710187;84;21073;-68
2022/01/21 02:50:11;;;;;;;4.63;0.90;;;;;;;-7.83;73.13;95623.42;1710321;84;20994;-68
2022/01/21 02:52:52;;;;;;;3.87;1.17;;;;;;;-7.87;73.25;95624.05;1710286;84;21025;-68
2022/01/21 02:55:09;;;;;;;4.00;1.83;;;;;;;-7.81;73.22;95624.77;1707480;84;21113;-68
2022/01/21 02:57:36;;;;;;;2.27;1.40;;;;;;;-7.82;72.94;95617.89;1709998;84;21058;-68
2022/01/21 03:00:06;;;;;;;2.50;1.40;;;;;;;-7.95;72.89;95613.42;1710299;84;20983;-69
2022/01/21 03:02:32;;;;;;;2.43;1.30;;;;;;;-8.02;73.26;95611.74;1710181;84;21029;-68
2022/01/21 03:05:08;;;;;;;2.83;1.60;;;;;;;-8.17;73.32;95611.82;1710298;84;21005;-67
2022/01/21 03:07:27;;;;;;;3.27;1.43;;;;;;;-8.13;73.97;95611.19;1707975;84;21025;-67
2022/01/21 03:09:53;;;;;;;2.30;1.30;;;;;;;-8.08;74.03;95613.19;1710196;84;21029;-67
2022/01/21 03:12:21;;;;;;;2.43;1.33;;;;;;;-8.16;73.48;95611.04;1709894;84;21487;-68
2022/01/21 03:14:48;;;;;;;3.57;1.30;;;;;;;-8.16;74.45;95614.88;1710056;84;21037;-67
2022/01/21 03:17:15;;;;;;;5.50;1.23;;;;;;;-8.21;73.27;95615.91;1699135;84;21129;-68
2022/01/21 03:19:42;;;;;;;3.43;1.30;;;;;;;-8.45;73.59;95618.47;1697662;84;21018;-67
2022/01/21 03:22:09;;;;;;;3.67;1.20;;;;;;;-8.45;73.85;95605.27;1697158;84;21034;-67
2022/01/21 03:24:35;;;;;;;2.03;1.23;;;;;;;-8.51;74.62;95606.23;1697157;84;21094;-67
2022/01/21 03:27:03;;;;;;;4.23;1.77;;;;;;;-8.52;74.53;95613.04;1697591;84;21030;-67
2022/01/21 03:29:30;;;;;;;2.13;1.50;;;;;;;-8.61;74.38;95608.70;1697308;84;21144;-67
2022/01/21 03:31:57;;;;;;;5.43;1.43;;;;;;;-8.67;74.08;95606.20;1697276;84;21083;-67
2022/01/21 03:34:24;;;;;;;2.83;1.03;;;;;;;-8.75;74.57;95603.22;1697361;84;21054;-68
2022/01/21 03:36:53;;;;;;;3.87;1.40;;;;;;;-8.80;74.53;95609.36;1697378;84;21058;-67
2022/01/21 03:39:20;;;;;;;5.03;2.13;;;;;;;-8.84;74.74;95605.30;1697380;84;21015;-68
2022/01/21 03:41:47;;;;;;;3.30;1.83;;;;;;;-8.84;74.35;95607.45;1697543;84;21019;-67
2022/01/21 03:44:14;;;;;;;5.20;1.80;;;;;;;-8.98;73.94;95618.58;1697340;84;21034;-67
2022/01/21 03:46:41;;;;;;;6.60;2.27;;;;;;;-8.99;74.57;95626.66;1697287;84;21145;-67
2022/01/21 03:49:09;;;;;;;3.90;2.03;;;;;;;-8.94;74.96;95623.08;1697624;84;20987;-67
2022/01/21 03:51:36;;;;;;;2.90;1.60;;;;;;;-8.87;74.97;95630.27;1697419;84;21528;-67
2022/01/21 03:54:03;;;;;;;4.20;1.37;;;;;;;-8.97;75.04;95638.23;1669798;84;21120;-67
2022/01/21 03:56:31;;;;;;;3.27;1.40;;;;;;;-8.93;74.92;95633.37;1697275;84;21107;-68
2022/01/21 03:58:59;;;;;;;5.37;1.97;;;;;;;-8.84;75.65;95631.74;1697081;84;20995;-67
2022/01/21 04:01:28;;;;;;;4.20;2.40;;;;;;;-8.68;75.43;95633.86;1697688;84;21032;-67
2022/01/21 04:03:54;;;;;;;11.57;4.77;;;;;;;-8.58;75.63;95631.88;1697790;84;20994;-67
2022/01/21 04:06:21;;;;;;;7.80;4.67;;;;;;;-8.46;75.48;95629.52;1697384;84;21034;-68
2022/01/21 04:08:47;;;;;;;1.50;1.10;;;;;;;-8.52;74.87;95638.63;1697457;84;21082;-66
2022/01/21 04:11:14;;;;;;;3.27;2.20;;;;;;;-8.40;75.31;95636.23;1697710;84;21038;-66
2022/01/21 04:13:43;;;;;;;8.80;4.20;;;;;;;-8.29;75.17;95632.14;1696763;84;21019;-69
2022/01/21 04:16:12;;;;;;;9.37;4.67;;;;;;;-8.60;74.22;95633.87;1701184;84;21049;-69
2022/01/21 04:18:39;;;;;;;23.37;11.70;;;;;;;-8.79;75.07;95637.98;1710045;84;21014;-69
2022/01/21 04:21:07;;;;;;;64.03;29.83;;;;;;;-8.73;75.16;95645.98;1709369;84;21041;-69
2022/01/21 04:23:36;;;;;;;54.07;25.53;;;;;;;-8.74;75.82;95644.23;1710059;84;21029;-69
2022/01/21 04:26:03;;;;;;;125.63;44.27;;;;;;;-8.68;76.13;95640.25;1710575;84;21070;-69
2022/01/21 04:28:31;;;;;;;114.07;42.23;;;;;;;-8.53;76.45;95638.12;1703597;84;20995;-69
2022/01/21 04:31:01;;;;;;;40.83;16.17;;;;;;;-8.45;76.22;95639.81;1709958;84;21030;-69
2022/01/21 04:33:30;;;;;;;60.63;25.33;;;;;;;-8.34;76.13;95641.25;1703197;84;20998;-69
2022/01/21 04:35:58;;;;;;;163.43;59.23;;;;;;;-8.23;76.87;95635.83;1710161;84;21563;-69
2022/01/21 04:38:26;;;;;;;106.87;46.63;;;;;;;-8.09;76.70;95639.60;1709473;84;21073;-69
2022/01/21 04:41:05;;;;;;;93.73;38.57;;;;;;;-8.08;75.62;95634.08;1710236;84;21030;-70
2022/01/21 04:48:55;;;;;;;135.67;51.83;;;;;;;-8.25;74.78;95634.86;1651420;86;21007;-79
2022/01/21 04:51:27;;;;;;;91.17;38.37;;;;;;;-8.30;74.73;95634.20;1680201;85;21081;-78
2022/01/21 04:53:50;;;;;;;102.40;42.80;;;;;;;-8.35;74.72;95637.33;1709359;84;21102;-78
2022/01/21 04:56:22;;;;;;;97.60;43.53;;;;;;;-8.42;74.71;95634.86;1709598;84;21058;-79
2022/01/21 04:58:49;;;;;;;136.63;55.53;;;;;;;-8.53;75.01;95633.00;1709353;84;21062;-79
2022/01/21 05:01:16;;;;;;;253.33;90.37;;;;;;;-8.48;75.37;95632.39;1709894;84;21073;-78
2022/01/21 05:03:45;;;;;;;202.97;72.53;;;;;;;-8.55;75.86;95635.88;1679829;84;21010;-78
2022/01/21 05:06:12;;;;;;;215.03;78.20;;;;;;;-8.57;75.95;95631.47;1710454;84;21018;-79
2022/01/21 05:11:06;;;;;;;132.87;57.83;;;;;;;-8.46;76.99;95625.27;1710073;84;21113;-78
2022/01/21 05:13:43;;;;;;;219.97;77.37;;;;;;;-8.40;76.04;95627.27;1709261;84;21472;-79
2022/01/21 05:16:11;;;;;;;177.97;65.53;;;;;;;-8.32;76.24;95624.28;1708552;84;21093;-78
2022/01/21 05:18:34;;;;;;;137.13;55.90;;;;;;;-8.21;76.64;95624.88;1709783;84;21033;-78
2022/01/21 05:21:03;;;;;;;129.10;47.13;;;;;;;-8.14;76.25;95624.40;1706120;84;21018;-78
2022/01/21 05:23:34;;;;;;;151.97;57.50;;;;;;;-8.09;75.63;95628.08;1709117;84;21486;-78
2022/01/21 05:26:01;;;;;;;102.67;48.83;;;;;;;-8.12;76.50;95624.45;1709980;84;21531;-78
2022/01/21 05:28:27;;;;;;;151.37;59.10;;;;;;;-8.11;75.86;95625.83;1710265;84;21013;-78
2022/01/21 05:31:05;;;;;;;169.10;64.03;;;;;;;-8.06;76.00;95624.39;1707517;84;21004;-78
2022/01/21 05:33:46;;;;;;;263.33;75.57;;;;;;;-8.08;76.51;95632.80;1709105;84;21057;-78
2022/01/21 05:36:14;;;;;;;221.23;68.93;;;;;;;-8.01;76.27;95627.57;1672834;84;21033;-78
2022/01/21 05:39:00;;;;;;;81.73;25.97;;;;;;;-8.03;75.99;95626.64;1708109;84;21441;-79
2022/01/21 05:41:38;;;;;;;70.17;25.70;;;;;;;-7.94;76.22;95621.56;1651449;87;21053;-78
2022/01/21 05:46:59;;;;;;;162.93;54.60;;;;;;;-7.94;76.38;95616.45;1708144;84;20986;-78
2022/01/21 05:49:36;;;;;;;172.13;53.07;;;;;;;-7.95;76.45;95617.26;1708018;84;21146;-78
2022/01/21 05:52:31;;;;;;;136.93;49.37;;;;;;;-7.89;76.50;95620.13;1710249;84;21532;-78
2022/01/21 05:54:53;;;;;;;155.00;55.40;;;;;;;-7.88;75.79;95618.47;1703762;84;21526;-79
2022/01/21 05:57:21;;;;;;;57.70;20.83;;;;;;;-7.90;75.20;95620.06;1706471;84;21500;-79
2022/01/21 05:59:49;;;;;;;160.03;60.83;;;;;;;-7.91;75.12;95615.34;1709803;84;21045;-79
2022/01/21 06:02:17;;;;;;;128.33;49.43;;;;;;;-8.09;75.77;95614.38;1684030;84;21058;-80
2022/01/21 06:04:46;;;;;;;285.53;105.63;;;;;;;-8.21;74.98;95617.56;1710072;84;21067;-79
2022/01/21 06:07:12;;;;;;;152.87;56.03;;;;;;;-8.34;75.51;95621.16;1709750;84;21531;-78
2022/01/21 06:09:39;;;;;;;128.03;44.27;;;;;;;-8.30;76.06;95609.89;1710143;84;21062;-75
2022/01/21 06:12:07;;;;;;;107.80;43.07;;;;;;;-8.29;75.91;95620.63;1708641;84;21109;-78
2022/01/21 06:14:34;;;;;;;133.37;54.07;;;;;;;-8.32;76.00;95620.44;1709643;84;21056;-74
2022/01/21 06:17:02;;;;;;;119.57;50.03;;;;;;;-8.50;75.81;95627.17;1708463;84;21113;-77
2022/01/21 06:19:29;;;;;;;99.90;41.77;;;;;;;-8.58;75.44;95627.17;1708905;84;21014;-77
2022/01/21 06:21:55;;;;;;;46.57;16.83;;;;;;;-8.66;75.54;95629.31;1709995;84;21017;-78
2022/01/21 06:24:22;;;;;;;10.37;2.87;;;;;;;-8.62;76.55;95632.91;1710007;84;21010;-78
2022/01/21 06:26:49;;;;;;;42.13;19.83;;;;;;;-8.51;76.65;95639.09;1712320;84;21043;-79
2022/01/21 06:29:15;;;;;;;113.47;42.80;;;;;;;-8.44;77.53;95638.12;1712560;84;21053;-81
2022/01/21 06:31:41;;;;;;;122.60;43.37;;;;;;;-8.44;77.02;95634.30;1711352;84;21626;-80
2022/01/21 06:34:08;;;;;;;29.83;11.60;;;;;;;-8.49;77.64;95646.86;1712352;84;21033;-75
2022/01/21 06:36:35;;;;;;;51.83;23.10;;;;;;;-8.40;77.19;95649.02;1703421;84;21150;-76
2022/01/21 06:39:01;;;;;;;136.07;56.47;;;;;;;-8.23;78.17;95658.86;1705535;84;21052;-72
2022/01/21 06:41:27;;;;;;;208.57;75.77;;;;;;;-8.20;78.58;95650.94;1723393;82;20991;-75
2022/01/21 06:43:54;;;;;;;172.60;73.10;;;;;;;-8.03;78.83;95659.92;1706879;84;21570;-73
2022/01/21 06:46:20;;;;;;;92.47;41.73;;;;;;;-8.03;77.80;95660.80;1696320;84;20995;-76
2022/01/21 06:48:47;;;;;;;40.70;16.90;;;;;;;-7.89;77.57;95662.38;1711832;84;21063;-75
2022/01/21 06:51:13;;;;;;;20.63;12.87;;;;;;;-7.72;77.45;95655.98;1686571;84;21049;-73
2022/01/21 06:53:40;;;;;;;36.13;18.23;;;;;;;-7.60;77.39;95659.59;1732514;83;21578;-71
2022/01/21 06:56:07;;;;;;;95.90;47.70;;;;;;;-7.44;78.17;95664.67;1732786;83;21090;-71
2022/01/21 06:58:33;;;;;;;121.00;53.87;;;;;;;-7.32;77.82;95663.14;1732688;83;21264;-70
2022/01/21 07:01:00;;;;;;;152.37;66.23;;;;;;;-7.17;77.37;95665.19;1710223;84;21042;-70
2022/01/21 07:03:27;;;;;;;87.23;42.30;;;;;;;-7.09;76.30;95660.44;1732926;83;21134;-69
2022/01/21 07:05:53;;;;;;;117.83;50.17;;;;;;;-7.02;76.33;95666.34;1709458;84;21072;-71
2022/01/21 07:08:20;;;;;;;65.83;32.73;;;;;;;-6.86;77.22;95671.81;1733062;83;21531;-73
2022/01/21 07:10:46;;;;;;;53.53;25.97;;;;;;;-6.60;77.64;95666.27;1710856;84;21049;-70
2022/01/21 07:13:13;;;;;;;19.70;11.47;;;;;;;-6.30;77.74;95665.92;1733066;83;21141;-69
2022/01/21 07:15:40;;;;;;;29.97;15.20;;;;;;;-6.02;78.44;95660.39;1690762;84;21582;-69
2022/01/21 07:18:06;;;;;;;43.10;21.87;;;;;;;-5.66;78.51;95667.53;1659095;86;21097;-69
2022/01/21 07:20:34;;;;;;;20.40;10.10;;;;;;;-5.36;77.99;95675.25;1694880;85;21077;-70
2022/01/21 07:23:01;;;;;;;15.43;6.73;;;;;;;-5.08;78.08;95667.00;1680493;85;21016;-69
2022/01/21 07:25:28;;;;;;;87.90;32.03;;;;;;;-4.79;77.83;95665.23;1694628;85;21053;-69
2022/01/21 07:27:55;;;;;;;46.70;18.33;;;;;;;-4.53;77.54;95656.81;1695671;85;21094;-69
2022/01/21 07:30:21;;;;;;;27.07;11.93;;;;;;;-4.30;76.97;95666.31;1694030;85;21178;-69
2022/01/21 07:32:48;;;;;;;12.07;5.70;;;;;;;-4.10;76.58;95662.34;1694645;85;21088;-69
2022/01/21 07:35:16;;;;;;;15.47;8.27;;;;;;;-3.93;76.06;95662.16;1695022;85;21085;-70
2022/01/21 07:37:43;;;;;;;20.20;9.53;;;;;;;-3.82;75.35;95672.87;1695064;85;21030;-71
2022/01/21 07:40:12;;;;;;;10.23;5.70;;;;;;;-3.76;75.16;95678.66;1694656;85;21323;-69
2022/01/21 07:42:38;;;;;;;15.73;6.30;;;;;;;-3.80;74.95;95675.09;1694605;85;21085;-68
2022/01/21 07:45:06;;;;;;;13.53;6.83;;;;;;;-3.79;75.00;95673.39;1664965;85;21085;-69
2022/01/21 07:47:33;;;;;;;16.23;8.60;;;;;;;-3.82;75.20;95672.00;1694953;85;21086;-70
2022/01/21 07:50:00;;;;;;;15.13;7.33;;;;;;;-3.82;75.28;95676.73;1695010;85;21531;-69
2022/01/21 07:52:27;;;;;;;12.27;6.90;;;;;;;-3.91;75.55;95672.51;1694383;85;21030;-69
2022/01/21 07:54:53;;;;;;;14.93;7.87;;;;;;;-3.89;75.59;95677.31;1694452;85;21153;-71
2022/01/21 07:57:20;;;;;;;13.93;8.23;;;;;;;-3.92;75.63;95681.95;1694770;85;21093;-69
2022/01/21 07:59:47;;;;;;;14.50;8.23;;;;;;;-3.90;75.51;95685.89;1694683;85;21110;-69
2022/01/21 08:02:13;;;;;;;15.67;7.83;;;;;;;-3.82;75.57;95674.16;1695488;85;21066;-72
2022/01/21 08:04:40;;;;;;;20.50;9.83;;;;;;;-3.70;75.52;95677.61;1694460;85;21157;-70
2022/01/21 08:07:09;;;;;;;13.70;5.93;;;;;;;-3.60;75.05;95669.81;1695460;85;21468;-71
2022/01/21 08:09:35;;;;;;;90.47;46.27;;;;;;;-3.51;74.51;95668.41;1695560;85;21614;-72
2022/01/21 08:12:04;;;;;;;52.90;29.57;;;;;;;-3.42;74.44;95669.59;1695638;85;21054;-71
2022/01/21 08:14:30;;;;;;;10.90;6.40;;;;;;;-3.38;73.42;95676.59;1694816;85;21634;-71
2022/01/21 08:16:58;;;;;;;15.20;8.80;;;;;;;-3.33;73.38;95686.25;1694428;84;20999;-71
2022/01/21 08:19:25;;;;;;;8.67;4.57;;;;;;;-3.29;73.45;95679.52;1683313;85;21149;-76
2022/01/21 08:21:52;;;;;;;62.93;34.70;;;;;;;-3.21;72.95;95683.66;1682802;84;21400;-72
2022/01/21 08:24:18;;;;;;;33.37;16.77;;;;;;;-3.14;72.84;95681.34;1682674;85;21116;-73
2022/01/21 08:26:45;;;;;;;14.23;6.90;;;;;;;-3.19;72.70;95686.76;1665911;85;21495;-72
2022/01/21 08:29:12;;;;;;;11.83;6.77;;;;;;;-3.09;72.61;95686.67;1683584;85;21049;-71
2022/01/21 08:31:39;;;;;;;18.97;10.27;;;;;;;-2.92;72.87;95679.10;1665694;85;21006;-74
2022/01/21 08:34:05;;;;;;;7.30;5.20;;;;;;;-2.77;71.91;95679.13;1683143;85;21679;-73
2022/01/21 08:36:32;;;;;;;11.47;7.47;;;;;;;-2.80;71.07;95670.00;1683942;85;20990;-70
2022/01/21 08:38:58;;;;;;;12.63;7.63;;;;;;;-2.70;71.66;95684.97;1682980;85;21081;-70
2022/01/21 08:41:26;;;;;;;20.63;13.70;;;;;;;-2.47;72.19;95679.27;1683698;85;20986;-68
2022/01/21 08:43:52;;;;;;;11.37;6.30;;;;;;;-2.26;71.22;95682.56;1684163;85;21109;-69
2022/01/21 08:46:21;;;;;;;16.13;8.50;;;;;;;-2.12;70.47;95680.81;1682645;84;20998;-71
2022/01/21 08:48:48;;;;;;;10.60;5.30;;;;;;;-2.09;69.88;95675.73;1684037;84;21142;-74
2022/01/21 08:51:23;;;;;;;11.00;6.20;;;;;;;-1.92;69.90;95673.25;1683972;84;20986;-74
2022/01/21 08:53:45;;;;;;;8.60;4.93;;;;;;;-1.80;68.06;95674.91;1683077;85;21137;-76
2022/01/21 08:56:15;;;;;;;7.03;4.20;;;;;;;-1.73;66.65;95672.11;1667409;85;21002;-74
2022/01/21 08:58:44;;;;;;;11.37;6.07;;;;;;;-1.74;65.65;95674.22;1661845;86;21559;-74
2022/01/21 09:01:12;;;;;;;3.33;1.90;;;;;;;-1.63;64.79;95675.84;1648394;87;21107;-72
2022/01/21 09:03:40;;;;;;;3.20;1.83;;;;;;;-1.35;63.38;95678.39;1650861;87;21065;-72
2022/01/21 09:06:07;;;;;;;5.63;2.30;;;;;;;-0.99;61.97;95665.11;1648077;87;21044;-71
2022/01/21 09:08:34;;;;;;;2.60;1.40;;;;;;;-0.44;61.87;95674.31;1647199;87;21065;-74
2022/01/21 09:11:04;;;;;;;22.70;12.17;;;;;;;-0.14;57.37;95676.77;1664789;86;21042;-73
2022/01/21 09:13:32;;;;;;;8.47;3.83;;;;;;;0.20;56.37;95678.44;1647634;86;21116;-72
2022/01/21 09:16:01;;;;;;;5.00;2.50;;;;;;;-0.05;57.23;95681.28;1646430;86;21107;-71
2022/01/21 09:18:44;;;;;;;3.63;1.97;;;;;;;0.19;57.62;95683.58;1656888;86;21648;-73
2022/01/21 09:21:01;;;;;;;2.80;1.60;;;;;;;0.05;56.25;95684.58;1667703;85;20988;-75
2022/01/21 09:23:28;;;;;;;2.93;1.80;;;;;;;-0.05;57.47;95682.58;1661054;86;21025;-74
2022/01/21 09:25:55;;;;;;;4.60;1.80;;;;;;;0.02;58.23;95688.38;1631509;87;21093;-73
2022/01/21 09:28:22;;;;;;;5.57;2.50;;;;;;;0.11;56.38;95682.11;1652538;87;21567;-74
2022/01/21 09:30:48;;;;;;;2.93;1.50;;;;;;;0.47;57.29;95677.27;1652779;87;21121;-82
2022/01/21 09:33:15;;;;;;;2.87;1.50;;;;;;;0.59;53.88;95684.03;1652777;87;21411;-77
2022/01/21 09:35:41;;;;;;;6.27;3.30;;;;;;;0.65;54.33;95674.19;1652244;87;21085;-72
2022/01/21 09:38:08;;;;;;;4.83;2.90;;;;;;;0.32;54.44;95689.92;1653549;87;21144;-73
2022/01/21 09:40:44;;;;;;;4.23;2.30;;;;;;;0.38;55.75;95686.18;1663540;86;21624;-79
2022/01/21 09:43:11;;;;;;;3.57;2.40;;;;;;;0.68;54.94;95689.86;1660452;86;21018;-75
2022/01/21 09:45:40;;;;;;;3.73;2.23;;;;;;;0.77;54.82;95676.17;1656004;86;21089;-75
2022/01/21 09:48:09;;;;;;;4.57;2.10;;;;;;;1.02;54.05;95671.91;1656996;86;21057;-75
2022/01/21 09:50:37;;;;;;;6.13;2.90;;;;;;;1.54;52.64;95665.89;1657911;85;21113;-74
2022/01/21 09:53:06;;;;;;;4.67;2.17;;;;;;;1.40;52.96;95666.97;1658141;86;21021;-74
2022/01/21 09:55:33;;;;;;;3.27;1.90;;;;;;;1.36;52.14;95675.16;1653485;86;21120;-72
2022/01/21 09:58:00;;;;;;;3.40;2.20;;;;;;;1.24;53.08;95674.50;1657384;86;21028;-74
2022/01/21 10:00:28;;;;;;;5.07;2.43;;;;;;;0.70;54.06;95679.05;1653973;87;21279;-71
2022/01/21 10:02:57;;;;;;;6.83;3.00;;;;;;;0.60;54.94;95683.59;1675106;86;21200;-69
2022/01/21 10:05:23;;;;;;;7.33;2.00;;;;;;;0.18;55.64;95690.50;1675234;85;21002;-72
2022/01/21 10:07:51;;;;;;;2.40;1.90;;;;;;;-0.08;56.00;95689.87;1667162;85;21090;-76
2022/01/21 10:10:19;;;;;;;2.83;2.00;;;;;;;-0.27;57.05;95689.86;1666282;86;21725;-77
2022/01/21 10:12:48;;;;;;;5.63;2.40;;;;;;;-0.70;58.59;95691.38;1657014;86;20978;-73
2022/01/21 10:15:14;;;;;;;6.87;2.63;;;;;;;-0.70;59.20;95685.33;1658785;86;21056;-72
2022/01/21 10:18:13;;;;;;;3.90;2.77;;;;;;;-0.65;59.22;95691.50;1658310;84;21125;-75
2022/01/21 10:21:04;;;;;;;7.13;3.00;;;;;;;-0.84;58.86;95696.60;1694716;85;21062;-75
2022/01/21 10:23:35;;;;;;;4.80;2.37;;;;;;;-0.92;59.94;95696.40;1655274;85;21019;-75
2022/01/21 10:26:12;;;;;;;6.83;2.90;;;;;;;-0.89;58.96;95702.95;1695469;85;20995;-76
2022/01/21 10:28:43;;;;;;;5.87;2.50;;;;;;;-1.11;59.60;95696.72;1696599;84;21041;-75
2022/01/21 10:31:19;;;;;;;4.63;2.50;;;;;;;-1.07;60.26;95697.70;1690078;85;21031;-76
2022/01/21 10:33:50;;;;;;;13.77;7.93;;;;;;;-1.12;58.94;95690.67;1690038;85;21524;-75
2022/01/21 10:36:28;;;;;;;6.80;4.50;;;;;;;-1.28;58.89;95688.93;1690151;85;21472;-75
2022/01/21 10:39:17;;;;;;;7.50;3.43;;;;;;;-1.35;59.44;95690.03;1663219;85;21052;-74
2022/01/21 10:41:44;;;;;;;8.90;3.50;;;;;;;-0.64;59.18;95693.67;1694985;85;21086;-76
2022/01/21 10:44:14;;;;;;;5.20;2.73;;;;;;;-0.13;58.00;95681.53;1688131;85;21026;-75
2022/01/21 10:46:49;;;;;;;24.67;14.60;;;;;;;0.79;55.27;95690.94;1687933;85;21509;-74
2022/01/21 10:49:16;;;;;;;9.07;3.90;;;;;;;1.54;54.20;95672.40;1695212;85;21030;-73
2022/01/21 10:51:51;;;;;;;6.40;3.10;;;;;;;2.35;52.62;95678.91;1687886;85;21054;-74
2022/01/21 10:54:30;;;;;;;5.97;2.57;;;;;;;2.42;50.94;95669.44;1688055;85;21596;-72
2022/01/21 10:57:16;;;;;;;4.10;2.20;;;;;;;3.41;49.64;95658.92;1687580;85;21517;-71
2022/01/21 11:00:05;;;;;;;6.80;3.70;;;;;;;3.37;46.87;95664.08;1688063;84;21074;-71
2022/01/21 11:02:49;;;;;;;4.80;2.00;;;;;;;3.92;46.85;95675.03;1687690;85;21528;-71
2022/01/21 11:05:30;;;;;;;5.78;2.60;;;;;;;4.06;45.23;95670.81;1688362;85;21007;-71
2022/01/21 11:08:01;;;;;;;5.60;2.87;;;;;;;4.26;44.57;95687.06;1687735;85;20995;-71
2022/01/21 11:10:42;;;;;;;4.55;2.87;;;;;;;3.90;43.61;95681.53;1687348;85;21556;-71
2022/01/21 11:13:20;;;;;;;5.73;3.90;;;;;;;2.95;46.05;95685.80;1688129;84;21066;-71
2022/01/21 11:15:54;;;;;;;5.93;3.80;;;;;;;1.88;49.86;95691.62;1688178;85;21031;-70
2022/01/21 11:18:22;;;;;;;9.17;5.00;;;;;;;1.64;50.72;95697.75;1694650;84;21507;-71
2022/01/21 11:20:57;;;;;;;9.30;4.20;;;;;;;1.53;51.08;95696.66;1713589;84;21033;-71
2022/01/21 11:23:22;;;;;;;5.05;3.27;;;;;;;1.53;51.96;95704.03;1713603;84;21053;-71
2022/01/21 11:26:01;;;;;;;5.27;3.87;;;;;;;1.52;51.13;95711.40;1713373;84;21044;-71
2022/01/21 11:28:46;;;;;;;6.33;3.83;;;;;;;0.84;52.52;95710.52;1713637;84;21054;-73
2022/01/21 11:31:14;;;;;;;6.63;3.17;;;;;;;0.91;54.30;95705.00;1713288;84;21121;-73
2022/01/21 11:33:41;;;;;;;6.03;3.10;;;;;;;1.06;53.09;95713.14;1713759;84;21037;-73
2022/01/21 11:36:07;;;;;;;6.23;3.80;;;;;;;1.69;52.54;95705.20;1681032;85;21038;-74
2022/01/21 11:38:38;;;;;;;7.17;3.73;;;;;;;2.05;50.84;95698.41;1710811;84;21034;-72
2022/01/21 11:41:09;;;;;;;6.27;4.00;;;;;;;2.07;51.73;95694.55;1710720;84;21058;-71
2022/01/21 11:43:38;;;;;;;6.30;2.80;;;;;;;2.51;48.88;95691.72;1711187;84;20994;-71
2022/01/21 11:46:20;;;;;;;4.47;3.47;;;;;;;1.83;49.10;95698.91;1710830;84;21040;-72
2022/01/21 11:48:55;;;;;;;6.60;3.20;;;;;;;1.18;50.17;95696.45;1710430;84;21029;-74
2022/01/21 11:51:30;;;;;;;9.20;4.10;;;;;;;0.46;52.00;95711.88;1710927;84;21484;-74
2022/01/21 11:54:03;;;;;;;7.23;4.07;;;;;;;0.01;54.70;95708.69;1711047;84;21049;-73
2022/01/21 11:56:43;;;;;;;7.20;3.95;;;;;;;-0.19;55.76;95708.63;1710903;84;21050;-73
2022/01/21 11:59:23;;;;;;;3.00;2.03;;;;;;;-0.41;55.97;95712.39;1710883;84;21066;-73
2022/01/21 12:01:50;;;;;;;5.40;2.70;;;;;;;-0.56;55.67;95711.16;1709764;84;21085;-73
2022/01/21 12:04:44;;;;;;;6.33;3.90;;;;;;;-0.57;55.57;95713.30;1710968;84;20982;-73
2022/01/21 12:07:40;;;;;;;;;;;;;;;-0.69;55.58;95718.16;1713419;84;21030;-75
2022/01/21 12:10:26;;;;;;;5.60;2.57;;;;;;;-1.04;56.07;95712.02;1710821;84;20388;-76
2022/01/21 12:13:06;;;;;;;2.57;1.53;;;;;;;-1.13;56.12;95710.07;1713774;84;21575;-75
2022/01/21 12:16:06;;;;;;;4.00;1.97;;;;;;;-1.18;56.78;95709.06;1702651;84;21517;-75
2022/01/21 12:21:32;;;;;;;5.17;3.50;;;;;;;-1.36;56.96;95714.17;1711661;84;21027;-75
2022/01/21 12:24:00;;;;;;;3.97;1.60;;;;;;;-1.31;58.13;95711.30;1715792;84;21010;-76
2022/01/21 12:26:29;;;;;;;6.97;2.77;;;;;;;-1.20;56.97;95706.84;1715905;84;21066;-76
2022/01/21 12:29:04;;;;;;;4.80;2.30;;;;;;;-1.15;56.70;95703.97;1715981;84;21029;-75
2022/01/21 12:31:53;;;;;;;5.87;2.53;;;;;;;-1.15;56.44;95698.78;1715666;84;21025;-76
2022/01/21 12:34:27;;;;;;;5.20;2.80;;;;;;;-1.17;56.65;95702.61;1715870;84;21157;-76